sensor_id;sensor_type;location;lat;lon;timestamp;P1;durP1;ratioP1;P2;durP2;ratioP2
55758;SDS011;41678;52.126;20.664;2022-10-30T00:00:35;33.13;;;13.07;;
55758;SDS011;41678;52.126;20.664;2022-10-30T00:06:11;25.90;;;13.68;;
55758;SDS011;41678;52.126;20.664;2022-10-30T00:11:49;34.10;;;13.00;;
55758;SDS011;41678;52.126;20.664;2022-10-30T00:17:08;25.08;;;13.13;;
55758;SDS011;41678;52.126;20.664;2022-10-30T00:22:28;29.50;;;13.48;;
55758;SDS011;41678;52.126;20.664;2022-10-30T00:27:48;24.45;;;12.10;;
55758;SDS011;41678;52.126;20.664;2022-10-30T00:33:08;26.15;;;13.13;;
55758;SDS011;41678;52.126;20.664;2022-10-30T00:38:27;27.95;;;13.63;;
55758;SDS011;41678;52.126;20.664;2022-10-30T00:43:47;29.85;;;14.48;;
55758;SDS011;41678;52.126;20.664;2022-10-30T00:49:25;24.80;;;12.85;;
55758;SDS011;41678;52.126;20.664;2022-10-30T00:55:10;27.08;;;13.45;;
55758;SDS011;41678;52.126;20.664;2022-10-30T01:00:33;36.28;;;13.70;;
55758;SDS011;41678;52.126;20.664;2022-10-30T01:11:17;27.20;;;12.23;;
55758;SDS011;41678;52.126;20.664;2022-10-30T01:39:22;37.53;;;14.15;;
55758;SDS011;41678;52.126;20.664;2022-10-30T01:44:45;24.83;;;12.18;;
55758;SDS011;41678;52.126;20.664;2022-10-30T02:01:12;24.83;;;12.43;;
55758;SDS011;41678;52.126;20.664;2022-10-30T02:06:34;19.48;;;11.02;;
55758;SDS011;41678;52.126;20.664;2022-10-30T02:11:54;29.98;;;13.65;;
55758;SDS011;41678;52.126;20.664;2022-10-30T02:17:15;24.40;;;10.68;;
55758;SDS011;41678;52.126;20.664;2022-10-30T02:22:35;27.02;;;11.80;;
55758;SDS011;41678;52.126;20.664;2022-10-30T02:27:55;26.10;;;11.50;;
55758;SDS011;41678;52.126;20.664;2022-10-30T02:33:15;23.38;;;11.95;;
55758;SDS011;41678;52.126;20.664;2022-10-30T02:38:35;26.50;;;11.52;;
55758;SDS011;41678;52.126;20.664;2022-10-30T02:43:54;20.35;;;10.15;;
55758;SDS011;41678;52.126;20.664;2022-10-30T02:49:14;21.33;;;11.32;;
55758;SDS011;41678;52.126;20.664;2022-10-30T02:54:34;31.35;;;12.30;;
55758;SDS011;41678;52.126;20.664;2022-10-30T03:00:12;22.48;;;11.68;;
55758;SDS011;41678;52.126;20.664;2022-10-30T03:05:33;22.88;;;11.50;;
55758;SDS011;41678;52.126;20.664;2022-10-30T03:10:57;30.40;;;12.35;;
55758;SDS011;41678;52.126;20.664;2022-10-30T03:16:19;31.13;;;12.73;;
55758;SDS011;41678;52.126;20.664;2022-10-30T03:21:40;20.88;;;11.18;;
55758;SDS011;41678;52.126;20.664;2022-10-30T03:27:00;25.88;;;12.65;;
55758;SDS011;41678;52.126;20.664;2022-10-30T03:32:21;26.65;;;11.40;;
55758;SDS011;41678;52.126;20.664;2022-10-30T03:37:45;22.73;;;11.48;;
55758;SDS011;41678;52.126;20.664;2022-10-30T03:43:05;22.17;;;11.90;;
55758;SDS011;41678;52.126;20.664;2022-10-30T03:48:26;29.05;;;11.70;;
55758;SDS011;41678;52.126;20.664;2022-10-30T03:53:48;27.42;;;12.60;;
55758;SDS011;41678;52.126;20.664;2022-10-30T03:59:08;25.63;;;12.48;;
55758;SDS011;41678;52.126;20.664;2022-10-30T04:04:33;24.83;;;12.55;;
55758;SDS011;41678;52.126;20.664;2022-10-30T04:09:53;29.38;;;12.68;;
55758;SDS011;41678;52.126;20.664;2022-10-30T04:15:12;25.05;;;12.10;;
55758;SDS011;41678;52.126;20.664;2022-10-30T04:20:32;22.98;;;12.75;;
55758;SDS011;41678;52.126;20.664;2022-10-30T04:25:52;27.27;;;12.60;;
55758;SDS011;41678;52.126;20.664;2022-10-30T04:31:30;22.05;;;12.23;;
55758;SDS011;41678;52.126;20.664;2022-10-30T04:36:50;21.42;;;12.52;;
55758;SDS011;41678;52.126;20.664;2022-10-30T04:42:10;30.25;;;13.63;;
55758;SDS011;41678;52.126;20.664;2022-10-30T04:47:31;23.33;;;12.80;;
55758;SDS011;41678;52.126;20.664;2022-10-30T04:53:13;26.52;;;12.30;;
55758;SDS011;41678;52.126;20.664;2022-10-30T04:58:35;28.95;;;13.32;;
55758;SDS011;41678;52.126;20.664;2022-10-30T05:04:16;28.30;;;12.73;;
55758;SDS011;41678;52.126;20.664;2022-10-30T05:09:35;23.27;;;12.25;;
55758;SDS011;41678;52.126;20.664;2022-10-30T05:15:14;24.13;;;12.70;;
55758;SDS011;41678;52.126;20.664;2022-10-30T05:20:34;24.10;;;13.35;;
55758;SDS011;41678;52.126;20.664;2022-10-30T05:26:13;28.17;;;13.00;;
55758;SDS011;41678;52.126;20.664;2022-10-30T05:31:33;34.08;;;13.45;;
55758;SDS011;41678;52.126;20.664;2022-10-30T05:42:36;31.15;;;13.50;;
55758;SDS011;41678;52.126;20.664;2022-10-30T05:48:00;32.15;;;15.38;;
55758;SDS011;41678;52.126;20.664;2022-10-30T05:53:25;32.20;;;14.23;;
55758;SDS011;41678;52.126;20.664;2022-10-30T05:59:05;32.35;;;14.45;;
55758;SDS011;41678;52.126;20.664;2022-10-30T06:04:25;30.67;;;14.60;;
55758;SDS011;41678;52.126;20.664;2022-10-30T06:09:46;32.85;;;13.98;;
55758;SDS011;41678;52.126;20.664;2022-10-30T06:20:49;35.92;;;15.48;;
55758;SDS011;41678;52.126;20.664;2022-10-30T06:26:27;30.63;;;15.32;;
55758;SDS011;41678;52.126;20.664;2022-10-30T06:32:11;39.58;;;16.25;;
55758;SDS011;41678;52.126;20.664;2022-10-30T06:37:30;29.25;;;13.50;;
55758;SDS011;41678;52.126;20.664;2022-10-30T06:42:54;30.15;;;15.02;;
55758;SDS011;41678;52.126;20.664;2022-10-30T06:48:54;34.80;;;15.93;;
55758;SDS011;41678;52.126;20.664;2022-10-30T06:54:13;31.35;;;16.02;;
55758;SDS011;41678;52.126;20.664;2022-10-30T06:59:53;33.50;;;16.10;;
55758;SDS011;41678;52.126;20.664;2022-10-30T07:05:45;36.53;;;17.58;;
55758;SDS011;41678;52.126;20.664;2022-10-30T07:11:04;43.90;;;18.63;;
55758;SDS011;41678;52.126;20.664;2022-10-30T07:16:43;41.72;;;18.60;;
55758;SDS011;41678;52.126;20.664;2022-10-30T07:22:03;41.50;;;17.08;;
55758;SDS011;41678;52.126;20.664;2022-10-30T07:27:23;32.28;;;16.48;;
55758;SDS011;41678;52.126;20.664;2022-10-30T07:32:57;37.75;;;16.92;;
55758;SDS011;41678;52.126;20.664;2022-10-30T07:38:43;34.53;;;16.13;;
55758;SDS011;41678;52.126;20.664;2022-10-30T07:44:35;40.20;;;15.43;;
55758;SDS011;41678;52.126;20.664;2022-10-30T07:50:18;30.60;;;14.38;;
55758;SDS011;41678;52.126;20.664;2022-10-30T07:55:38;26.60;;;12.70;;
55758;SDS011;41678;52.126;20.664;2022-10-30T08:01:24;24.08;;;10.52;;
55758;SDS011;41678;52.126;20.664;2022-10-30T08:06:43;22.88;;;11.10;;
55758;SDS011;41678;52.126;20.664;2022-10-30T08:12:03;26.80;;;10.30;;
55758;SDS011;41678;52.126;20.664;2022-10-30T08:17:23;19.83;;;8.65;;
55758;SDS011;41678;52.126;20.664;2022-10-30T08:22:50;21.35;;;9.10;;
55758;SDS011;41678;52.126;20.664;2022-10-30T08:28:14;20.95;;;8.55;;
55758;SDS011;41678;52.126;20.664;2022-10-30T08:33:36;14.30;;;7.38;;
55758;SDS011;41678;52.126;20.664;2022-10-30T08:39:28;17.70;;;7.50;;
55758;SDS011;41678;52.126;20.664;2022-10-30T08:44:54;15.60;;;7.05;;
55758;SDS011;41678;52.126;20.664;2022-10-30T08:50:33;15.88;;;6.10;;
55758;SDS011;41678;52.126;20.664;2022-10-30T08:55:53;11.70;;;5.00;;
55758;SDS011;41678;52.126;20.664;2022-10-30T09:01:18;12.98;;;4.88;;
55758;SDS011;41678;52.126;20.664;2022-10-30T09:07:15;14.70;;;5.40;;
55758;SDS011;41678;52.126;20.664;2022-10-30T09:12:34;11.40;;;4.45;;
55758;SDS011;41678;52.126;20.664;2022-10-30T09:17:58;10.52;;;5.53;;
55758;SDS011;41678;52.126;20.664;2022-10-30T09:23:41;12.55;;;4.93;;
55758;SDS011;41678;52.126;20.664;2022-10-30T09:29:20;9.38;;;4.65;;
55758;SDS011;41678;52.126;20.664;2022-10-30T09:35:09;12.85;;;5.38;;
55758;SDS011;41678;52.126;20.664;2022-10-30T09:51:58;14.55;;;4.95;;
55758;SDS011;41678;52.126;20.664;2022-10-30T10:04:04;19.38;;;5.85;;
55758;SDS011;41678;52.126;20.664;2022-10-30T10:09:33;11.45;;;5.07;;
55758;SDS011;41678;52.126;20.664;2022-10-30T10:21:22;12.70;;;4.35;;
55758;SDS011;41678;52.126;20.664;2022-10-30T10:26:55;9.48;;;4.20;;
55758;SDS011;41678;52.126;20.664;2022-10-30T10:49:41;9.93;;;3.70;;
55758;SDS011;41678;52.126;20.664;2022-10-30T10:55:31;9.55;;;3.65;;
55758;SDS011;41678;52.126;20.664;2022-10-30T11:00:55;7.40;;;2.75;;
55758;SDS011;41678;52.126;20.664;2022-10-30T11:06:37;11.50;;;3.75;;
55758;SDS011;41678;52.126;20.664;2022-10-30T11:12:00;7.72;;;2.65;;
55758;SDS011;41678;52.126;20.664;2022-10-30T11:17:31;8.15;;;2.88;;
55758;SDS011;41678;52.126;20.664;2022-10-30T11:22:57;6.00;;;2.97;;
55758;SDS011;41678;52.126;20.664;2022-10-30T11:28:25;11.10;;;3.92;;
55758;SDS011;41678;52.126;20.664;2022-10-30T11:33:53;22.45;;;8.10;;
55758;SDS011;41678;52.126;20.664;2022-10-30T11:39:32;17.45;;;7.65;;
55758;SDS011;41678;52.126;20.664;2022-10-30T11:44:53;13.30;;;6.15;;
55758;SDS011;41678;52.126;20.664;2022-10-30T11:50:24;19.05;;;5.55;;
55758;SDS011;41678;52.126;20.664;2022-10-30T11:55:47;11.57;;;4.65;;
55758;SDS011;41678;52.126;20.664;2022-10-30T12:06:44;12.10;;;4.68;;
55758;SDS011;41678;52.126;20.664;2022-10-30T12:12:27;14.65;;;5.57;;
55758;SDS011;41678;52.126;20.664;2022-10-30T12:18:34;9.07;;;4.32;;
55758;SDS011;41678;52.126;20.664;2022-10-30T12:23:37;8.10;;;3.28;;
55758;SDS011;41678;52.126;20.664;2022-10-30T12:28:58;7.63;;;3.15;;
55758;SDS011;41678;52.126;20.664;2022-10-30T12:34:58;7.65;;;2.80;;
55758;SDS011;41678;52.126;20.664;2022-10-30T12:40:23;6.43;;;2.65;;
55758;SDS011;41678;52.126;20.664;2022-10-30T12:52:04;14.70;;;3.38;;
55758;SDS011;41678;52.126;20.664;2022-10-30T12:57:33;9.32;;;3.22;;
55758;SDS011;41678;52.126;20.664;2022-10-30T13:03:09;14.25;;;3.10;;
55758;SDS011;41678;52.126;20.664;2022-10-30T13:14:32;8.90;;;2.50;;
55758;SDS011;41678;52.126;20.664;2022-10-30T13:20:15;7.18;;;2.42;;
55758;SDS011;41678;52.126;20.664;2022-10-30T13:25:54;8.98;;;2.42;;
55758;SDS011;41678;52.126;20.664;2022-10-30T13:31:32;12.32;;;2.40;;
55758;SDS011;41678;52.126;20.664;2022-10-30T13:37:48;6.40;;;2.28;;
55758;SDS011;41678;52.126;20.664;2022-10-30T13:54:17;7.22;;;2.15;;
55758;SDS011;41678;52.126;20.664;2022-10-30T14:00:02;5.63;;;2.17;;
55758;SDS011;41678;52.126;20.664;2022-10-30T14:05:43;9.68;;;2.50;;
55758;SDS011;41678;52.126;20.664;2022-10-30T14:11:04;8.88;;;3.22;;
55758;SDS011;41678;52.126;20.664;2022-10-30T14:16:34;8.10;;;2.40;;
55758;SDS011;41678;52.126;20.664;2022-10-30T14:21:58;6.70;;;2.28;;
55758;SDS011;41678;52.126;20.664;2022-10-30T14:27:25;9.35;;;2.78;;
55758;SDS011;41678;52.126;20.664;2022-10-30T14:32:50;6.18;;;2.38;;
55758;SDS011;41678;52.126;20.664;2022-10-30T15:05:56;8.82;;;3.67;;
55758;SDS011;41678;52.126;20.664;2022-10-30T15:16:55;12.80;;;4.13;;
55758;SDS011;41678;52.126;20.664;2022-10-30T15:22:16;9.70;;;4.03;;
55758;SDS011;41678;52.126;20.664;2022-10-30T15:27:38;15.25;;;5.53;;
55758;SDS011;41678;52.126;20.664;2022-10-30T15:33:01;18.27;;;6.00;;
55758;SDS011;41678;52.126;20.664;2022-10-30T15:38:21;18.67;;;6.43;;
55758;SDS011;41678;52.126;20.664;2022-10-30T15:43:41;22.17;;;5.55;;
55758;SDS011;41678;52.126;20.664;2022-10-30T15:49:40;15.88;;;5.63;;
55758;SDS011;41678;52.126;20.664;2022-10-30T15:55:07;31.05;;;6.85;;
55758;SDS011;41678;52.126;20.664;2022-10-30T16:00:58;25.95;;;8.50;;
55758;SDS011;41678;52.126;20.664;2022-10-30T16:06:38;22.85;;;6.38;;
55758;SDS011;41678;52.126;20.664;2022-10-30T16:11:58;20.80;;;7.65;;
55758;SDS011;41678;52.126;20.664;2022-10-30T16:17:18;26.87;;;8.73;;
55758;SDS011;41678;52.126;20.664;2022-10-30T16:22:38;20.48;;;8.60;;
55758;SDS011;41678;52.126;20.664;2022-10-30T16:28:29;20.75;;;7.25;;
55758;SDS011;41678;52.126;20.664;2022-10-30T16:33:54;17.90;;;6.90;;
55758;SDS011;41678;52.126;20.664;2022-10-30T16:39:17;17.38;;;7.13;;
55758;SDS011;41678;52.126;20.664;2022-10-30T16:44:38;17.00;;;8.50;;
55758;SDS011;41678;52.126;20.664;2022-10-30T16:49:57;21.70;;;9.00;;
55758;SDS011;41678;52.126;20.664;2022-10-30T16:55:36;18.15;;;7.95;;
55758;SDS011;41678;52.126;20.664;2022-10-30T17:01:03;26.13;;;9.82;;
55758;SDS011;41678;52.126;20.664;2022-10-30T17:17:38;43.65;;;17.65;;
55758;SDS011;41678;52.126;20.664;2022-10-30T17:23:04;35.47;;;15.90;;
55758;SDS011;41678;52.126;20.664;2022-10-30T17:28:37;41.92;;;17.48;;
55758;SDS011;41678;52.126;20.664;2022-10-30T17:39:20;31.30;;;14.77;;
55758;SDS011;41678;52.126;20.664;2022-10-30T17:44:40;29.55;;;14.48;;
55758;SDS011;41678;52.126;20.664;2022-10-30T17:49:59;39.47;;;16.15;;
55758;SDS011;41678;52.126;20.664;2022-10-30T17:55:25;30.85;;;16.10;;
55758;SDS011;41678;52.126;20.664;2022-10-30T18:01:13;46.85;;;21.42;;
55758;SDS011;41678;52.126;20.664;2022-10-30T18:06:36;44.45;;;19.65;;
55758;SDS011;41678;52.126;20.664;2022-10-30T18:11:56;45.50;;;20.35;;
55758;SDS011;41678;52.126;20.664;2022-10-30T18:17:15;55.72;;;25.35;;
55758;SDS011;41678;52.126;20.664;2022-10-30T18:22:35;63.90;;;27.98;;
55758;SDS011;41678;52.126;20.664;2022-10-30T18:27:55;62.53;;;31.13;;
55758;SDS011;41678;52.126;20.664;2022-10-30T18:33:15;65.93;;;33.50;;
55758;SDS011;41678;52.126;20.664;2022-10-30T18:38:35;73.07;;;34.40;;
55758;SDS011;41678;52.126;20.664;2022-10-30T18:43:55;76.05;;;34.25;;
55758;SDS011;41678;52.126;20.664;2022-10-30T18:49:15;70.68;;;32.63;;
55758;SDS011;41678;52.126;20.664;2022-10-30T18:54:53;68.28;;;33.53;;
55758;SDS011;41678;52.126;20.664;2022-10-30T19:00:14;82.82;;;37.00;;
55758;SDS011;41678;52.126;20.664;2022-10-30T19:05:48;79.78;;;38.55;;
55758;SDS011;41678;52.126;20.664;2022-10-30T19:11:10;83.40;;;39.05;;
55758;SDS011;41678;52.126;20.664;2022-10-30T19:16:31;83.18;;;40.38;;
55758;SDS011;41678;52.126;20.664;2022-10-30T19:21:51;90.45;;;41.95;;
55758;SDS011;41678;52.126;20.664;2022-10-30T19:27:29;93.03;;;40.70;;
55758;SDS011;41678;52.126;20.664;2022-10-30T19:33:08;91.78;;;42.22;;
55758;SDS011;41678;52.126;20.664;2022-10-30T19:38:28;88.20;;;43.47;;
55758;SDS011;41678;52.126;20.664;2022-10-30T19:43:48;100.20;;;43.10;;
55758;SDS011;41678;52.126;20.664;2022-10-30T19:49:18;98.15;;;45.22;;
55758;SDS011;41678;52.126;20.664;2022-10-30T19:54:38;93.20;;;42.50;;
55758;SDS011;41678;52.126;20.664;2022-10-30T19:59:57;81.78;;;41.85;;
55758;SDS011;41678;52.126;20.664;2022-10-30T20:05:18;89.88;;;42.25;;
55758;SDS011;41678;52.126;20.664;2022-10-30T20:10:40;73.83;;;40.37;;
55758;SDS011;41678;52.126;20.664;2022-10-30T20:16:06;83.47;;;41.33;;
55758;SDS011;41678;52.126;20.664;2022-10-30T20:21:26;87.75;;;38.55;;
55758;SDS011;41678;52.126;20.664;2022-10-30T20:27:04;79.95;;;36.15;;
55758;SDS011;41678;52.126;20.664;2022-10-30T20:32:24;85.85;;;36.03;;
55758;SDS011;41678;52.126;20.664;2022-10-30T20:38:02;82.75;;;35.75;;
55758;SDS011;41678;52.126;20.664;2022-10-30T20:43:27;76.85;;;32.30;;
55758;SDS011;41678;52.126;20.664;2022-10-30T20:49:07;77.20;;;34.63;;
55758;SDS011;41678;52.126;20.664;2022-10-30T20:54:27;77.95;;;35.13;;
55758;SDS011;41678;52.126;20.664;2022-10-30T21:00:05;93.22;;;39.95;;
55758;SDS011;41678;52.126;20.664;2022-10-30T21:05:27;89.47;;;38.47;;
55758;SDS011;41678;52.126;20.664;2022-10-30T21:10:47;95.20;;;39.97;;
55758;SDS011;41678;52.126;20.664;2022-10-30T21:16:07;81.47;;;39.92;;
55758;SDS011;41678;52.126;20.664;2022-10-30T21:21:27;84.28;;;39.05;;
55758;SDS011;41678;52.126;20.664;2022-10-30T21:27:05;83.68;;;36.95;;
55758;SDS011;41678;52.126;20.664;2022-10-30T21:32:27;80.70;;;37.42;;
55758;SDS011;41678;52.126;20.664;2022-10-30T21:37:48;83.65;;;37.17;;
55758;SDS011;41678;52.126;20.664;2022-10-30T21:43:26;91.53;;;39.90;;
55758;SDS011;41678;52.126;20.664;2022-10-30T21:48:47;107.50;;;42.17;;
55758;SDS011;41678;52.126;20.664;2022-10-30T21:54:06;87.38;;;39.17;;
55758;SDS011;41678;52.126;20.664;2022-10-30T21:59:26;84.97;;;38.13;;
55758;SDS011;41678;52.126;20.664;2022-10-30T22:04:46;94.20;;;36.30;;
55758;SDS011;41678;52.126;20.664;2022-10-30T22:10:06;90.50;;;38.92;;
55758;SDS011;41678;52.126;20.664;2022-10-30T22:15:26;88.82;;;39.60;;
55758;SDS011;41678;52.126;20.664;2022-10-30T22:20:46;91.75;;;41.25;;
55758;SDS011;41678;52.126;20.664;2022-10-30T22:26:07;83.40;;;40.60;;
55758;SDS011;41678;52.126;20.664;2022-10-30T22:31:30;90.78;;;39.10;;
55758;SDS011;41678;52.126;20.664;2022-10-30T22:36:50;73.10;;;34.92;;
55758;SDS011;41678;52.126;20.664;2022-10-30T22:42:10;95.93;;;35.38;;
55758;SDS011;41678;52.126;20.664;2022-10-30T22:47:30;91.90;;;35.75;;
55758;SDS011;41678;52.126;20.664;2022-10-30T22:52:49;82.40;;;33.45;;
55758;SDS011;41678;52.126;20.664;2022-10-30T22:58:08;87.75;;;36.80;;
55758;SDS011;41678;52.126;20.664;2022-10-30T23:03:29;78.10;;;35.22;;
55758;SDS011;41678;52.126;20.664;2022-10-30T23:08:50;68.10;;;33.17;;
55758;SDS011;41678;52.126;20.664;2022-10-30T23:14:11;74.40;;;33.70;;
55758;SDS011;41678;52.126;20.664;2022-10-30T23:19:31;78.35;;;33.78;;
55758;SDS011;41678;52.126;20.664;2022-10-30T23:24:50;73.78;;;32.38;;
55758;SDS011;41678;52.126;20.664;2022-10-30T23:30:10;75.45;;;33.55;;
55758;SDS011;41678;52.126;20.664;2022-10-30T23:35:30;74.20;;;31.05;;
55758;SDS011;41678;52.126;20.664;2022-10-30T23:41:08;67.38;;;31.33;;
55758;SDS011;41678;52.126;20.664;2022-10-30T23:46:27;61.05;;;27.25;;
55758;SDS011;41678;52.126;20.664;2022-10-30T23:51:47;59.92;;;26.80;;
55758;SDS011;41678;52.126;20.664;2022-10-30T23:57:07;76.78;;;29.45;;
